sensor_id;sensor_type;location;lat;lon;timestamp;P1;durP1;ratioP1;P2;durP2;ratioP2
21038;SDS011;10678;51.002;4.786;2023-12-28T00:00:29;5.47;;;1.58;;
21038;SDS011;10678;51.002;4.786;2023-12-28T00:02:55;5.55;;;1.98;;
21038;SDS011;10678;51.002;4.786;2023-12-28T00:05:21;4.47;;;1.80;;
21038;SDS011;10678;51.002;4.786;2023-12-28T00:07:46;4.07;;;1.67;;
21038;SDS011;10678;51.002;4.786;2023-12-28T00:10:12;5.72;;;1.90;;
21038;SDS011;10678;51.002;4.786;2023-12-28T00:12:38;4.68;;;1.92;;
21038;SDS011;10678;51.002;4.786;2023-12-28T00:15:03;5.15;;;1.60;;
21038;SDS011;10678;51.002;4.786;2023-12-28T00:17:29;4.88;;;1.60;;
21038;SDS011;10678;51.002;4.786;2023-12-28T00:19:55;5.13;;;1.45;;
21038;SDS011;10678;51.002;4.786;2023-12-28T00:22:20;4.72;;;1.52;;
21038;SDS011;10678;51.002;4.786;2023-12-28T00:24:46;5.07;;;1.55;;
21038;SDS011;10678;51.002;4.786;2023-12-28T00:27:12;5.00;;;1.38;;
21038;SDS011;10678;51.002;4.786;2023-12-28T00:29:37;4.00;;;1.63;;
21038;SDS011;10678;51.002;4.786;2023-12-28T00:32:06;9.10;;;1.90;;
21038;SDS011;10678;51.002;4.786;2023-12-28T00:34:32;4.68;;;1.67;;
21038;SDS011;10678;51.002;4.786;2023-12-28T00:36:58;4.82;;;1.83;;
21038;SDS011;10678;51.002;4.786;2023-12-28T00:39:23;7.30;;;2.15;;
21038;SDS011;10678;51.002;4.786;2023-12-28T00:41:49;4.40;;;1.60;;
21038;SDS011;10678;51.002;4.786;2023-12-28T00:44:15;5.43;;;2.03;;
21038;SDS011;10678;51.002;4.786;2023-12-28T00:46:40;3.88;;;1.63;;
21038;SDS011;10678;51.002;4.786;2023-12-28T00:49:06;3.67;;;1.38;;
21038;SDS011;10678;51.002;4.786;2023-12-28T00:51:33;4.00;;;1.63;;
21038;SDS011;10678;51.002;4.786;2023-12-28T00:53:59;6.40;;;1.90;;
21038;SDS011;10678;51.002;4.786;2023-12-28T00:56:24;5.88;;;1.67;;
21038;SDS011;10678;51.002;4.786;2023-12-28T00:58:50;4.05;;;1.60;;
21038;SDS011;10678;51.002;4.786;2023-12-28T01:01:16;3.85;;;1.67;;
21038;SDS011;10678;51.002;4.786;2023-12-28T01:03:42;5.22;;;1.90;;
21038;SDS011;10678;51.002;4.786;2023-12-28T01:06:08;5.53;;;1.40;;
21038;SDS011;10678;51.002;4.786;2023-12-28T01:08:33;4.57;;;1.50;;
21038;SDS011;10678;51.002;4.786;2023-12-28T01:10:59;6.70;;;1.77;;
21038;SDS011;10678;51.002;4.786;2023-12-28T01:13:27;6.70;;;1.67;;
21038;SDS011;10678;51.002;4.786;2023-12-28T01:15:53;4.60;;;1.52;;
21038;SDS011;10678;51.002;4.786;2023-12-28T01:18:19;6.88;;;1.52;;
21038;SDS011;10678;51.002;4.786;2023-12-28T01:20:45;5.10;;;1.70;;
21038;SDS011;10678;51.002;4.786;2023-12-28T01:23:10;6.68;;;1.70;;
21038;SDS011;10678;51.002;4.786;2023-12-28T01:25:36;4.95;;;1.70;;
21038;SDS011;10678;51.002;4.786;2023-12-28T01:28:02;5.53;;;1.40;;
21038;SDS011;10678;51.002;4.786;2023-12-28T01:30:27;8.20;;;1.70;;
21038;SDS011;10678;51.002;4.786;2023-12-28T01:32:53;5.85;;;1.92;;
21038;SDS011;10678;51.002;4.786;2023-12-28T01:35:19;4.38;;;1.50;;
21038;SDS011;10678;51.002;4.786;2023-12-28T01:37:44;4.55;;;1.65;;
21038;SDS011;10678;51.002;4.786;2023-12-28T01:40:10;7.47;;;2.08;;
21038;SDS011;10678;51.002;4.786;2023-12-28T01:42:36;5.95;;;1.40;;
21038;SDS011;10678;51.002;4.786;2023-12-28T01:45:02;6.18;;;1.48;;
21038;SDS011;10678;51.002;4.786;2023-12-28T01:47:28;6.72;;;1.80;;
21038;SDS011;10678;51.002;4.786;2023-12-28T01:49:54;6.85;;;2.22;;
21038;SDS011;10678;51.002;4.786;2023-12-28T01:52:21;4.80;;;1.60;;
21038;SDS011;10678;51.002;4.786;2023-12-28T01:54:47;8.60;;;1.60;;
21038;SDS011;10678;51.002;4.786;2023-12-28T01:57:13;4.70;;;1.58;;
21038;SDS011;10678;51.002;4.786;2023-12-28T01:59:40;5.22;;;1.55;;
21038;SDS011;10678;51.002;4.786;2023-12-28T02:02:06;3.33;;;1.35;;
21038;SDS011;10678;51.002;4.786;2023-12-28T02:04:32;4.30;;;1.58;;
21038;SDS011;10678;51.002;4.786;2023-12-28T02:06:59;8.95;;;2.05;;
21038;SDS011;10678;51.002;4.786;2023-12-28T02:09:25;5.50;;;1.70;;
21038;SDS011;10678;51.002;4.786;2023-12-28T02:11:51;5.15;;;1.88;;
21038;SDS011;10678;51.002;4.786;2023-12-28T02:14:17;4.25;;;1.60;;
21038;SDS011;10678;51.002;4.786;2023-12-28T02:16:47;5.95;;;2.10;;
21038;SDS011;10678;51.002;4.786;2023-12-28T02:19:31;6.05;;;1.80;;
21038;SDS011;10678;51.002;4.786;2023-12-28T02:22:07;4.85;;;2.20;;
21038;SDS011;10678;51.002;4.786;2023-12-28T02:27:18;6.32;;;1.75;;
21038;SDS011;10678;51.002;4.786;2023-12-28T02:29:44;4.28;;;1.42;;
21038;SDS011;10678;51.002;4.786;2023-12-28T02:32:09;5.07;;;1.65;;
21038;SDS011;10678;51.002;4.786;2023-12-28T02:34:37;4.40;;;1.58;;
21038;SDS011;10678;51.002;4.786;2023-12-28T02:37:05;4.57;;;1.80;;
21038;SDS011;10678;51.002;4.786;2023-12-28T02:39:31;5.32;;;1.77;;
21038;SDS011;10678;51.002;4.786;2023-12-28T02:41:58;7.28;;;1.90;;
21038;SDS011;10678;51.002;4.786;2023-12-28T02:44:24;5.43;;;1.50;;
21038;SDS011;10678;51.002;4.786;2023-12-28T02:46:49;6.20;;;2.13;;
21038;SDS011;10678;51.002;4.786;2023-12-28T02:49:15;10.35;;;1.70;;
21038;SDS011;10678;51.002;4.786;2023-12-28T02:51:41;3.75;;;1.60;;
21038;SDS011;10678;51.002;4.786;2023-12-28T02:54:07;6.07;;;1.77;;
21038;SDS011;10678;51.002;4.786;2023-12-28T02:56:33;6.80;;;1.73;;
21038;SDS011;10678;51.002;4.786;2023-12-28T02:58:59;6.53;;;1.83;;
21038;SDS011;10678;51.002;4.786;2023-12-28T03:01:25;5.88;;;2.00;;
21038;SDS011;10678;51.002;4.786;2023-12-28T03:03:50;4.72;;;1.52;;
21038;SDS011;10678;51.002;4.786;2023-12-28T03:06:16;6.43;;;1.92;;
21038;SDS011;10678;51.002;4.786;2023-12-28T03:08:41;8.00;;;1.60;;
21038;SDS011;10678;51.002;4.786;2023-12-28T03:11:07;6.78;;;1.60;;
21038;SDS011;10678;51.002;4.786;2023-12-28T03:13:33;5.70;;;1.40;;
21038;SDS011;10678;51.002;4.786;2023-12-28T03:15:58;8.00;;;1.83;;
21038;SDS011;10678;51.002;4.786;2023-12-28T03:18:24;6.68;;;1.88;;
21038;SDS011;10678;51.002;4.786;2023-12-28T03:20:49;9.63;;;1.42;;
21038;SDS011;10678;51.002;4.786;2023-12-28T03:23:15;5.60;;;1.58;;
21038;SDS011;10678;51.002;4.786;2023-12-28T03:25:41;5.05;;;1.50;;
21038;SDS011;10678;51.002;4.786;2023-12-28T03:28:06;7.57;;;1.65;;
21038;SDS011;10678;51.002;4.786;2023-12-28T03:30:32;9.07;;;1.65;;
21038;SDS011;10678;51.002;4.786;2023-12-28T03:32:57;5.95;;;1.50;;
21038;SDS011;10678;51.002;4.786;2023-12-28T03:35:23;6.35;;;1.80;;
21038;SDS011;10678;51.002;4.786;2023-12-28T03:37:49;8.15;;;1.50;;
21038;SDS011;10678;51.002;4.786;2023-12-28T03:40:14;11.50;;;1.90;;
21038;SDS011;10678;51.002;4.786;2023-12-28T03:42:40;4.85;;;1.45;;
21038;SDS011;10678;51.002;4.786;2023-12-28T03:45:06;5.93;;;1.65;;
21038;SDS011;10678;51.002;4.786;2023-12-28T03:47:32;8.82;;;1.70;;
21038;SDS011;10678;51.002;4.786;2023-12-28T03:49:58;6.00;;;1.58;;
21038;SDS011;10678;51.002;4.786;2023-12-28T03:52:27;6.88;;;1.83;;
21038;SDS011;10678;51.002;4.786;2023-12-28T03:54:55;6.85;;;1.70;;
21038;SDS011;10678;51.002;4.786;2023-12-28T03:57:20;8.30;;;1.40;;
21038;SDS011;10678;51.002;4.786;2023-12-28T03:59:46;11.80;;;2.10;;
21038;SDS011;10678;51.002;4.786;2023-12-28T04:02:12;9.18;;;1.90;;
21038;SDS011;10678;51.002;4.786;2023-12-28T04:04:38;7.45;;;2.28;;
21038;SDS011;10678;51.002;4.786;2023-12-28T04:07:04;8.75;;;1.98;;
21038;SDS011;10678;51.002;4.786;2023-12-28T04:09:32;5.13;;;1.42;;
21038;SDS011;10678;51.002;4.786;2023-12-28T04:11:58;7.50;;;1.70;;
21038;SDS011;10678;51.002;4.786;2023-12-28T04:14:23;6.72;;;0.90;;
21038;SDS011;10678;51.002;4.786;2023-12-28T04:16:49;8.27;;;2.08;;
21038;SDS011;10678;51.002;4.786;2023-12-28T04:19:15;9.30;;;2.08;;
21038;SDS011;10678;51.002;4.786;2023-12-28T04:21:42;10.18;;;1.48;;
21038;SDS011;10678;51.002;4.786;2023-12-28T04:24:09;8.38;;;2.22;;
21038;SDS011;10678;51.002;4.786;2023-12-28T04:26:34;6.28;;;1.30;;
21038;SDS011;10678;51.002;4.786;2023-12-28T04:29:00;8.52;;;1.83;;
21038;SDS011;10678;51.002;4.786;2023-12-28T04:31:26;7.03;;;1.55;;
21038;SDS011;10678;51.002;4.786;2023-12-28T04:33:51;9.20;;;1.40;;
21038;SDS011;10678;51.002;4.786;2023-12-28T04:36:17;9.05;;;1.58;;
21038;SDS011;10678;51.002;4.786;2023-12-28T04:38:43;11.27;;;1.80;;
21038;SDS011;10678;51.002;4.786;2023-12-28T04:41:09;8.35;;;1.70;;
21038;SDS011;10678;51.002;4.786;2023-12-28T04:43:35;4.03;;;1.30;;
21038;SDS011;10678;51.002;4.786;2023-12-28T04:46:04;12.75;;;2.08;;
21038;SDS011;10678;51.002;4.786;2023-12-28T04:48:30;4.30;;;1.40;;
21038;SDS011;10678;51.002;4.786;2023-12-28T04:50:56;7.78;;;2.10;;
21038;SDS011;10678;51.002;4.786;2023-12-28T04:53:22;8.40;;;2.10;;
21038;SDS011;10678;51.002;4.786;2023-12-28T04:55:47;4.45;;;1.48;;
21038;SDS011;10678;51.002;4.786;2023-12-28T04:58:13;11.02;;;1.75;;
21038;SDS011;10678;51.002;4.786;2023-12-28T05:00:39;10.75;;;1.70;;
21038;SDS011;10678;51.002;4.786;2023-12-28T05:03:04;6.80;;;1.17;;
21038;SDS011;10678;51.002;4.786;2023-12-28T05:05:31;11.77;;;2.05;;
21038;SDS011;10678;51.002;4.786;2023-12-28T05:07:57;7.78;;;1.63;;
21038;SDS011;10678;51.002;4.786;2023-12-28T05:10:22;9.23;;;2.03;;
21038;SDS011;10678;51.002;4.786;2023-12-28T05:12:48;5.85;;;1.40;;
21038;SDS011;10678;51.002;4.786;2023-12-28T05:15:14;4.75;;;1.50;;
21038;SDS011;10678;51.002;4.786;2023-12-28T05:17:40;8.02;;;1.65;;
21038;SDS011;10678;51.002;4.786;2023-12-28T05:20:06;10.65;;;1.63;;
21038;SDS011;10678;51.002;4.786;2023-12-28T05:22:32;10.30;;;2.20;;
21038;SDS011;10678;51.002;4.786;2023-12-28T05:24:58;8.63;;;1.80;;
21038;SDS011;10678;51.002;4.786;2023-12-28T05:27:24;13.35;;;2.47;;
21038;SDS011;10678;51.002;4.786;2023-12-28T05:29:49;9.98;;;1.60;;
21038;SDS011;10678;51.002;4.786;2023-12-28T05:32:15;9.35;;;1.65;;
21038;SDS011;10678;51.002;4.786;2023-12-28T05:34:41;9.52;;;1.55;;
21038;SDS011;10678;51.002;4.786;2023-12-28T05:37:06;11.63;;;1.60;;
21038;SDS011;10678;51.002;4.786;2023-12-28T05:39:32;12.23;;;2.08;;
21038;SDS011;10678;51.002;4.786;2023-12-28T05:41:58;9.38;;;1.42;;
21038;SDS011;10678;51.002;4.786;2023-12-28T05:44:23;10.18;;;2.08;;
21038;SDS011;10678;51.002;4.786;2023-12-28T05:46:49;6.50;;;1.33;;
21038;SDS011;10678;51.002;4.786;2023-12-28T05:49:14;8.68;;;1.85;;
21038;SDS011;10678;51.002;4.786;2023-12-28T05:51:40;10.32;;;1.83;;
21038;SDS011;10678;51.002;4.786;2023-12-28T05:54:06;13.65;;;2.08;;
21038;SDS011;10678;51.002;4.786;2023-12-28T05:56:33;6.10;;;2.05;;
21038;SDS011;10678;51.002;4.786;2023-12-28T05:58:58;7.25;;;2.00;;
21038;SDS011;10678;51.002;4.786;2023-12-28T06:01:24;13.40;;;2.40;;
21038;SDS011;10678;51.002;4.786;2023-12-28T06:03:50;10.23;;;1.98;;
21038;SDS011;10678;51.002;4.786;2023-12-28T06:06:17;13.30;;;2.13;;
21038;SDS011;10678;51.002;4.786;2023-12-28T06:08:43;15.25;;;1.65;;
21038;SDS011;10678;51.002;4.786;2023-12-28T06:11:09;13.27;;;1.63;;
21038;SDS011;10678;51.002;4.786;2023-12-28T06:13:34;9.95;;;1.70;;
21038;SDS011;10678;51.002;4.786;2023-12-28T06:16:00;15.55;;;1.77;;
21038;SDS011;10678;51.002;4.786;2023-12-28T06:18:26;11.60;;;2.17;;
21038;SDS011;10678;51.002;4.786;2023-12-28T06:20:52;7.20;;;1.80;;
21038;SDS011;10678;51.002;4.786;2023-12-28T06:23:17;10.88;;;2.08;;
21038;SDS011;10678;51.002;4.786;2023-12-28T06:25:44;7.07;;;1.73;;
21038;SDS011;10678;51.002;4.786;2023-12-28T06:28:09;14.48;;;2.05;;
21038;SDS011;10678;51.002;4.786;2023-12-28T06:30:35;5.97;;;1.60;;
21038;SDS011;10678;51.002;4.786;2023-12-28T06:33:01;13.23;;;2.15;;
21038;SDS011;10678;51.002;4.786;2023-12-28T06:35:26;16.67;;;2.22;;
21038;SDS011;10678;51.002;4.786;2023-12-28T06:37:52;14.15;;;2.10;;
21038;SDS011;10678;51.002;4.786;2023-12-28T06:40:17;13.27;;;2.30;;
21038;SDS011;10678;51.002;4.786;2023-12-28T06:42:43;8.77;;;2.00;;
21038;SDS011;10678;51.002;4.786;2023-12-28T06:45:09;12.93;;;1.88;;
21038;SDS011;10678;51.002;4.786;2023-12-28T06:47:35;15.52;;;2.00;;
21038;SDS011;10678;51.002;4.786;2023-12-28T06:50:01;12.43;;;1.92;;
21038;SDS011;10678;51.002;4.786;2023-12-28T06:52:27;8.40;;;1.60;;
21038;SDS011;10678;51.002;4.786;2023-12-28T06:54:52;11.68;;;1.85;;
21038;SDS011;10678;51.002;4.786;2023-12-28T06:57:18;9.07;;;1.95;;
21038;SDS011;10678;51.002;4.786;2023-12-28T06:59:44;12.02;;;2.50;;
21038;SDS011;10678;51.002;4.786;2023-12-28T07:02:10;13.98;;;2.72;;
21038;SDS011;10678;51.002;4.786;2023-12-28T07:04:35;11.82;;;1.83;;
21038;SDS011;10678;51.002;4.786;2023-12-28T07:07:01;12.05;;;1.73;;
21038;SDS011;10678;51.002;4.786;2023-12-28T07:09:27;10.48;;;1.90;;
21038;SDS011;10678;51.002;4.786;2023-12-28T07:11:53;8.80;;;2.00;;
21038;SDS011;10678;51.002;4.786;2023-12-28T07:14:18;9.93;;;2.47;;
21038;SDS011;10678;51.002;4.786;2023-12-28T07:16:44;11.25;;;1.98;;
21038;SDS011;10678;51.002;4.786;2023-12-28T07:19:10;8.10;;;2.05;;
21038;SDS011;10678;51.002;4.786;2023-12-28T07:21:36;14.80;;;2.83;;
21038;SDS011;10678;51.002;4.786;2023-12-28T07:24:01;11.63;;;1.83;;
21038;SDS011;10678;51.002;4.786;2023-12-28T07:26:27;15.38;;;3.10;;
21038;SDS011;10678;51.002;4.786;2023-12-28T07:28:53;10.88;;;2.08;;
21038;SDS011;10678;51.002;4.786;2023-12-28T07:31:26;16.67;;;2.40;;
21038;SDS011;10678;51.002;4.786;2023-12-28T07:33:53;14.73;;;2.30;;
21038;SDS011;10678;51.002;4.786;2023-12-28T07:36:19;12.48;;;2.33;;
21038;SDS011;10678;51.002;4.786;2023-12-28T07:38:45;11.45;;;2.33;;
21038;SDS011;10678;51.002;4.786;2023-12-28T07:41:11;11.38;;;2.50;;
21038;SDS011;10678;51.002;4.786;2023-12-28T07:43:37;18.17;;;2.83;;
21038;SDS011;10678;51.002;4.786;2023-12-28T07:46:03;14.50;;;1.77;;
21038;SDS011;10678;51.002;4.786;2023-12-28T07:48:29;14.38;;;2.53;;
21038;SDS011;10678;51.002;4.786;2023-12-28T07:50:55;9.80;;;2.13;;
21038;SDS011;10678;51.002;4.786;2023-12-28T07:53:22;13.07;;;2.33;;
21038;SDS011;10678;51.002;4.786;2023-12-28T07:55:47;11.00;;;2.25;;
21038;SDS011;10678;51.002;4.786;2023-12-28T07:58:13;12.45;;;2.35;;
21038;SDS011;10678;51.002;4.786;2023-12-28T08:00:39;13.02;;;2.70;;
21038;SDS011;10678;51.002;4.786;2023-12-28T08:03:05;18.10;;;2.78;;
21038;SDS011;10678;51.002;4.786;2023-12-28T08:05:31;12.68;;;2.15;;
21038;SDS011;10678;51.002;4.786;2023-12-28T08:07:56;13.25;;;2.80;;
21038;SDS011;10678;51.002;4.786;2023-12-28T08:10:22;14.77;;;3.17;;
21038;SDS011;10678;51.002;4.786;2023-12-28T08:12:47;17.33;;;3.03;;
21038;SDS011;10678;51.002;4.786;2023-12-28T08:15:13;13.00;;;2.67;;
21038;SDS011;10678;51.002;4.786;2023-12-28T08:17:39;12.63;;;2.63;;
21038;SDS011;10678;51.002;4.786;2023-12-28T08:20:05;13.52;;;2.55;;
21038;SDS011;10678;51.002;4.786;2023-12-28T08:22:31;10.77;;;1.90;;
21038;SDS011;10678;51.002;4.786;2023-12-28T08:24:57;15.95;;;3.13;;
21038;SDS011;10678;51.002;4.786;2023-12-28T08:27:23;14.13;;;2.70;;
21038;SDS011;10678;51.002;4.786;2023-12-28T08:29:49;11.13;;;1.73;;
21038;SDS011;10678;51.002;4.786;2023-12-28T08:32:14;19.20;;;2.90;;
21038;SDS011;10678;51.002;4.786;2023-12-28T08:34:42;13.90;;;2.05;;
21038;SDS011;10678;51.002;4.786;2023-12-28T08:37:08;13.60;;;2.08;;
21038;SDS011;10678;51.002;4.786;2023-12-28T08:39:33;14.55;;;2.10;;
21038;SDS011;10678;51.002;4.786;2023-12-28T08:41:59;16.75;;;2.42;;
21038;SDS011;10678;51.002;4.786;2023-12-28T08:44:25;9.43;;;1.63;;
21038;SDS011;10678;51.002;4.786;2023-12-28T08:46:51;16.35;;;2.60;;
21038;SDS011;10678;51.002;4.786;2023-12-28T08:49:17;5.97;;;1.60;;
21038;SDS011;10678;51.002;4.786;2023-12-28T08:51:43;14.27;;;2.25;;
21038;SDS011;10678;51.002;4.786;2023-12-28T08:54:08;14.85;;;3.10;;
21038;SDS011;10678;51.002;4.786;2023-12-28T08:56:34;12.43;;;2.08;;
21038;SDS011;10678;51.002;4.786;2023-12-28T08:59:00;11.13;;;2.20;;
21038;SDS011;10678;51.002;4.786;2023-12-28T09:01:26;10.85;;;2.08;;
21038;SDS011;10678;51.002;4.786;2023-12-28T09:03:52;10.65;;;2.10;;
21038;SDS011;10678;51.002;4.786;2023-12-28T09:06:19;14.00;;;2.35;;
21038;SDS011;10678;51.002;4.786;2023-12-28T09:08:46;9.98;;;2.22;;
21038;SDS011;10678;51.002;4.786;2023-12-28T09:11:15;11.43;;;2.13;;
21038;SDS011;10678;51.002;4.786;2023-12-28T09:13:41;16.25;;;2.25;;
21038;SDS011;10678;51.002;4.786;2023-12-28T09:16:07;11.70;;;2.25;;
21038;SDS011;10678;51.002;4.786;2023-12-28T09:18:34;9.20;;;1.70;;
21038;SDS011;10678;51.002;4.786;2023-12-28T09:21:02;14.00;;;2.80;;
21038;SDS011;10678;51.002;4.786;2023-12-28T09:23:28;16.45;;;2.45;;
21038;SDS011;10678;51.002;4.786;2023-12-28T09:25:54;15.60;;;2.60;;
21038;SDS011;10678;51.002;4.786;2023-12-28T09:28:20;19.45;;;2.92;;
21038;SDS011;10678;51.002;4.786;2023-12-28T09:30:45;8.75;;;2.38;;
21038;SDS011;10678;51.002;4.786;2023-12-28T09:33:11;11.80;;;2.65;;
21038;SDS011;10678;51.002;4.786;2023-12-28T09:35:37;13.18;;;2.00;;
21038;SDS011;10678;51.002;4.786;2023-12-28T09:38:02;11.55;;;1.90;;
21038;SDS011;10678;51.002;4.786;2023-12-28T09:40:28;9.38;;;2.08;;
21038;SDS011;10678;51.002;4.786;2023-12-28T09:43:01;7.05;;;1.48;;
21038;SDS011;10678;51.002;4.786;2023-12-28T09:45:35;7.65;;;1.77;;
21038;SDS011;10678;51.002;4.786;2023-12-28T09:48:00;11.13;;;1.88;;
21038;SDS011;10678;51.002;4.786;2023-12-28T09:50:28;16.65;;;2.28;;
21038;SDS011;10678;51.002;4.786;2023-12-28T09:52:53;10.75;;;2.28;;
21038;SDS011;10678;51.002;4.786;2023-12-28T09:55:19;10.30;;;1.92;;
21038;SDS011;10678;51.002;4.786;2023-12-28T09:57:45;11.70;;;2.03;;
21038;SDS011;10678;51.002;4.786;2023-12-28T10:00:12;14.00;;;2.47;;
21038;SDS011;10678;51.002;4.786;2023-12-28T10:02:39;10.98;;;2.13;;
21038;SDS011;10678;51.002;4.786;2023-12-28T10:05:08;11.10;;;1.95;;
21038;SDS011;10678;51.002;4.786;2023-12-28T10:07:44;14.23;;;2.25;;
21038;SDS011;10678;51.002;4.786;2023-12-28T10:10:10;10.55;;;2.92;;
21038;SDS011;10678;51.002;4.786;2023-12-28T10:12:36;13.32;;;2.28;;
21038;SDS011;10678;51.002;4.786;2023-12-28T10:15:03;11.85;;;1.88;;
21038;SDS011;10678;51.002;4.786;2023-12-28T10:17:29;18.55;;;2.20;;
21038;SDS011;10678;51.002;4.786;2023-12-28T10:19:57;8.80;;;2.05;;
21038;SDS011;10678;51.002;4.786;2023-12-28T10:22:28;14.90;;;2.38;;
21038;SDS011;10678;51.002;4.786;2023-12-28T10:24:54;11.50;;;2.28;;
21038;SDS011;10678;51.002;4.786;2023-12-28T10:27:20;11.02;;;2.13;;
21038;SDS011;10678;51.002;4.786;2023-12-28T10:29:46;10.35;;;1.83;;
21038;SDS011;10678;51.002;4.786;2023-12-28T10:32:11;14.35;;;2.35;;
21038;SDS011;10678;51.002;4.786;2023-12-28T10:34:38;17.17;;;2.08;;
21038;SDS011;10678;51.002;4.786;2023-12-28T10:37:04;13.77;;;2.50;;
21038;SDS011;10678;51.002;4.786;2023-12-28T10:39:31;17.02;;;2.42;;
21038;SDS011;10678;51.002;4.786;2023-12-28T10:41:59;14.98;;;2.78;;
21038;SDS011;10678;51.002;4.786;2023-12-28T10:44:27;13.13;;;2.42;;
21038;SDS011;10678;51.002;4.786;2023-12-28T10:46:57;13.32;;;2.35;;
21038;SDS011;10678;51.002;4.786;2023-12-28T10:49:26;18.85;;;2.40;;
21038;SDS011;10678;51.002;4.786;2023-12-28T10:51:54;11.95;;;2.83;;
21038;SDS011;10678;51.002;4.786;2023-12-28T10:54:23;13.18;;;2.20;;
21038;SDS011;10678;51.002;4.786;2023-12-28T10:57:40;10.82;;;2.30;;
21038;SDS011;10678;51.002;4.786;2023-12-28T11:02:42;13.10;;;2.30;;
21038;SDS011;10678;51.002;4.786;2023-12-28T11:05:13;12.85;;;2.25;;
21038;SDS011;10678;51.002;4.786;2023-12-28T11:07:42;14.73;;;2.15;;
21038;SDS011;10678;51.002;4.786;2023-12-28T11:10:09;19.42;;;2.63;;
21038;SDS011;10678;51.002;4.786;2023-12-28T11:12:35;16.00;;;2.45;;
21038;SDS011;10678;51.002;4.786;2023-12-28T11:15:03;11.68;;;1.83;;
21038;SDS011;10678;51.002;4.786;2023-12-28T11:17:33;13.73;;;2.03;;
21038;SDS011;10678;51.002;4.786;2023-12-28T11:20:02;16.48;;;2.72;;
21038;SDS011;10678;51.002;4.786;2023-12-28T11:22:30;21.13;;;2.83;;
21038;SDS011;10678;51.002;4.786;2023-12-28T11:24:57;10.77;;;2.25;;
21038;SDS011;10678;51.002;4.786;2023-12-28T11:27:24;14.57;;;2.28;;
21038;SDS011;10678;51.002;4.786;2023-12-28T11:29:51;15.48;;;2.38;;
21038;SDS011;10678;51.002;4.786;2023-12-28T11:32:17;14.98;;;2.42;;
21038;SDS011;10678;51.002;4.786;2023-12-28T11:34:44;11.68;;;2.47;;
21038;SDS011;10678;51.002;4.786;2023-12-28T11:37:13;15.50;;;2.10;;
21038;SDS011;10678;51.002;4.786;2023-12-28T11:39:44;16.17;;;2.30;;
21038;SDS011;10678;51.002;4.786;2023-12-28T11:42:10;17.48;;;2.38;;
21038;SDS011;10678;51.002;4.786;2023-12-28T11:44:42;17.48;;;2.60;;
21038;SDS011;10678;51.002;4.786;2023-12-28T11:47:12;16.92;;;2.42;;
21038;SDS011;10678;51.002;4.786;2023-12-28T11:49:48;15.90;;;2.85;;
21038;SDS011;10678;51.002;4.786;2023-12-28T11:52:26;19.75;;;3.13;;
21038;SDS011;10678;51.002;4.786;2023-12-28T11:54:54;17.33;;;2.83;;
21038;SDS011;10678;51.002;4.786;2023-12-28T11:57:20;13.18;;;2.30;;
21038;SDS011;10678;51.002;4.786;2023-12-28T11:59:47;14.90;;;3.15;;
21038;SDS011;10678;51.002;4.786;2023-12-28T12:02:17;12.00;;;2.50;;
21038;SDS011;10678;51.002;4.786;2023-12-28T12:04:44;14.00;;;3.05;;
21038;SDS011;10678;51.002;4.786;2023-12-28T12:07:09;15.80;;;3.08;;
21038;SDS011;10678;51.002;4.786;2023-12-28T12:09:35;12.95;;;1.90;;
21038;SDS011;10678;51.002;4.786;2023-12-28T12:12:01;17.55;;;3.42;;
21038;SDS011;10678;51.002;4.786;2023-12-28T12:14:27;21.85;;;3.13;;
21038;SDS011;10678;51.002;4.786;2023-12-28T12:16:54;20.60;;;2.75;;
21038;SDS011;10678;51.002;4.786;2023-12-28T12:19:23;18.77;;;2.72;;
21038;SDS011;10678;51.002;4.786;2023-12-28T12:21:53;14.65;;;2.47;;
21038;SDS011;10678;51.002;4.786;2023-12-28T12:24:20;14.68;;;2.63;;
21038;SDS011;10678;51.002;4.786;2023-12-28T12:26:46;17.10;;;3.28;;
21038;SDS011;10678;51.002;4.786;2023-12-28T12:29:13;19.52;;;2.25;;
21038;SDS011;10678;51.002;4.786;2023-12-28T12:31:41;19.60;;;2.90;;
21038;SDS011;10678;51.002;4.786;2023-12-28T12:34:09;10.93;;;2.63;;
21038;SDS011;10678;51.002;4.786;2023-12-28T12:36:35;14.45;;;2.97;;
21038;SDS011;10678;51.002;4.786;2023-12-28T12:39:02;12.75;;;2.17;;
21038;SDS011;10678;51.002;4.786;2023-12-28T12:41:31;17.63;;;2.50;;
21038;SDS011;10678;51.002;4.786;2023-12-28T12:43:58;12.27;;;2.25;;
21038;SDS011;10678;51.002;4.786;2023-12-28T12:46:24;14.43;;;2.00;;
21038;SDS011;10678;51.002;4.786;2023-12-28T12:48:56;10.30;;;2.28;;
21038;SDS011;10678;51.002;4.786;2023-12-28T12:51:23;14.05;;;2.25;;
21038;SDS011;10678;51.002;4.786;2023-12-28T12:53:49;15.23;;;2.17;;
21038;SDS011;10678;51.002;4.786;2023-12-28T12:56:15;15.80;;;2.28;;
21038;SDS011;10678;51.002;4.786;2023-12-28T12:58:43;14.90;;;2.65;;
21038;SDS011;10678;51.002;4.786;2023-12-28T13:01:12;9.60;;;2.10;;
21038;SDS011;10678;51.002;4.786;2023-12-28T13:03:37;14.55;;;2.38;;
21038;SDS011;10678;51.002;4.786;2023-12-28T13:06:03;15.48;;;2.55;;
21038;SDS011;10678;51.002;4.786;2023-12-28T13:08:29;15.32;;;2.70;;
21038;SDS011;10678;51.002;4.786;2023-12-28T13:10:55;16.23;;;2.88;;
21038;SDS011;10678;51.002;4.786;2023-12-28T13:13:20;13.00;;;2.30;;
21038;SDS011;10678;51.002;4.786;2023-12-28T13:15:46;16.27;;;2.72;;
21038;SDS011;10678;51.002;4.786;2023-12-28T13:18:12;15.35;;;2.33;;
21038;SDS011;10678;51.002;4.786;2023-12-28T13:20:38;19.30;;;2.75;;
21038;SDS011;10678;51.002;4.786;2023-12-28T13:23:03;15.32;;;2.45;;
21038;SDS011;10678;51.002;4.786;2023-12-28T13:25:29;12.00;;;1.60;;
21038;SDS011;10678;51.002;4.786;2023-12-28T13:27:55;12.55;;;2.13;;
21038;SDS011;10678;51.002;4.786;2023-12-28T13:30:20;15.43;;;2.38;;
21038;SDS011;10678;51.002;4.786;2023-12-28T13:32:46;14.40;;;1.85;;
21038;SDS011;10678;51.002;4.786;2023-12-28T13:35:12;11.25;;;1.65;;
21038;SDS011;10678;51.002;4.786;2023-12-28T13:37:38;15.30;;;2.10;;
21038;SDS011;10678;51.002;4.786;2023-12-28T13:40:04;12.73;;;1.98;;
21038;SDS011;10678;51.002;4.786;2023-12-28T13:42:31;13.80;;;1.92;;
21038;SDS011;10678;51.002;4.786;2023-12-28T13:44:57;14.65;;;2.53;;
21038;SDS011;10678;51.002;4.786;2023-12-28T13:47:23;16.77;;;2.20;;
21038;SDS011;10678;51.002;4.786;2023-12-28T13:49:48;14.25;;;2.00;;
21038;SDS011;10678;51.002;4.786;2023-12-28T13:52:14;14.32;;;1.83;;
21038;SDS011;10678;51.002;4.786;2023-12-28T13:54:40;7.75;;;1.65;;
21038;SDS011;10678;51.002;4.786;2023-12-28T13:57:06;11.60;;;2.10;;
21038;SDS011;10678;51.002;4.786;2023-12-28T13:59:32;12.57;;;2.05;;
21038;SDS011;10678;51.002;4.786;2023-12-28T14:01:58;12.88;;;2.17;;
21038;SDS011;10678;51.002;4.786;2023-12-28T14:04:24;14.85;;;2.08;;
21038;SDS011;10678;51.002;4.786;2023-12-28T14:06:49;12.73;;;2.13;;
21038;SDS011;10678;51.002;4.786;2023-12-28T14:09:15;10.23;;;1.73;;
21038;SDS011;10678;51.002;4.786;2023-12-28T14:11:45;13.55;;;2.60;;
21038;SDS011;10678;51.002;4.786;2023-12-28T14:14:14;10.25;;;2.10;;
21038;SDS011;10678;51.002;4.786;2023-12-28T14:16:40;13.63;;;2.03;;
21038;SDS011;10678;51.002;4.786;2023-12-28T14:19:06;13.10;;;1.95;;
21038;SDS011;10678;51.002;4.786;2023-12-28T14:21:35;15.13;;;1.92;;
21038;SDS011;10678;51.002;4.786;2023-12-28T14:24:02;11.40;;;2.05;;
21038;SDS011;10678;51.002;4.786;2023-12-28T14:26:28;16.67;;;2.00;;
21038;SDS011;10678;51.002;4.786;2023-12-28T14:28:57;10.27;;;1.85;;
21038;SDS011;10678;51.002;4.786;2023-12-28T14:31:24;13.80;;;2.00;;
21038;SDS011;10678;51.002;4.786;2023-12-28T14:33:51;17.15;;;2.90;;
21038;SDS011;10678;51.002;4.786;2023-12-28T14:36:34;16.65;;;2.17;;
21038;SDS011;10678;51.002;4.786;2023-12-28T14:39:01;12.60;;;2.17;;
21038;SDS011;10678;51.002;4.786;2023-12-28T14:41:30;10.18;;;2.42;;